Time;durP1;ratioP1;P1;durP2;ratioP2;P2;SDS_P1;SDS_P2;PMS_P1;PMS_P2;Temp;Humidity;BMP_temperature;BMP_pressure;BME280_temperature;BME280_humidity;BME280_pressure;Samples;Min_cycle;Max_cycle;Signal;HPM_P1;HPM_P2
2022/06/13 00:01:10;;;;;;;14.88;9.88;;;;;;;17.52;81.56;95179.59;5046740;28;20057;-87
2022/06/13 00:03:35;;;;;;;19.08;9.93;;;;;;;16.55;81.26;95034.44;5045919;28;20053;-87
2022/06/13 00:06:01;;;;;;;13.98;9.55;;;;;;;15.79;81.38;94917.06;5046285;28;20044;-88
2022/06/13 00:08:26;;;;;;;17.67;11.57;;;;;;;17.00;81.87;95109.13;5036852;28;20077;-87
2022/06/13 00:10:52;;;;;;;19.73;12.00;;;;;;;16.87;81.90;95087.53;5009031;28;20052;-87
2022/06/13 00:13:18;;;;;;;18.50;11.55;;;;;;;16.98;82.28;95110.25;5021414;28;20434;-87
2022/06/13 00:15:43;;;;;;;20.42;11.57;;;;;;;17.02;82.20;95128.34;5028336;28;20049;-88
2022/06/13 00:18:08;;;;;;;15.95;10.85;;;;;;;15.59;82.02;94914.19;5028878;28;20057;-87
2022/06/13 00:20:34;;;;;;;17.17;11.00;;;;;;;16.88;81.82;95131.19;5046048;28;20056;-88
2022/06/13 00:22:59;;;;;;;19.48;11.20;;;;;;;17.42;81.95;95194.09;5028395;28;20045;-88
2022/06/13 00:25:25;;;;;;;13.65;9.95;;;;;;;16.00;81.10;94984.13;5045479;28;20049;-88
2022/06/13 00:27:50;;;;;;;17.95;10.70;;;;;;;17.25;81.60;95194.09;5046527;28;20489;-87
2022/06/13 00:30:17;;;;;;;15.77;9.90;;;;;;;15.33;81.12;94900.75;5026816;28;20075;-88
2022/06/13 00:32:42;;;;;;;14.27;10.35;;;;;;;16.67;80.99;95106.09;5011542;28;20061;-87
2022/06/13 00:35:08;;;;;;;15.10;10.95;;;;;;;16.06;81.52;95009.63;5028130;28;20413;-88
2022/06/13 00:37:34;;;;;;;17.52;10.77;;;;;;;17.13;81.97;95180.53;5027994;28;20164;-87
2022/06/13 00:39:59;;;;;;;17.35;11.35;;;;;;;15.22;81.68;94888.75;5046228;28;20143;-87
2022/06/13 00:42:27;;;;;;;18.23;10.50;;;;;;;17.21;81.69;95211.91;5046411;28;20052;-88
2022/06/13 00:45:10;;;;;;;17.20;10.00;;;;;;;16.92;81.42;95161.59;5028331;28;20059;-87
2022/06/13 00:47:37;;;;;;;10.90;8.95;;;;;;;16.79;81.24;95152.59;5029064;28;20083;-88
2022/06/13 00:50:06;;;;;;;17.77;9.95;;;;;;;17.25;81.16;95215.53;5058613;28;20045;-88
2022/06/13 00:52:42;;;;;;;18.48;10.55;;;;;;;17.10;80.45;95202.59;5044385;28;20040;-88
2022/06/13 00:55:12;;;;;;;16.30;11.05;;;;;;;17.14;81.62;95200.88;5027065;28;20045;-88
2022/06/13 00:57:39;;;;;;;18.13;10.45;;;;;;;16.20;81.75;95055.75;5008766;28;20044;-88
2022/06/13 01:00:08;;;;;;;12.82;10.30;;;;;;;16.64;82.11;95118.22;5027486;28;20053;-88
2022/06/13 01:02:36;;;;;;;18.30;11.00;;;;;;;16.75;82.26;95135.59;5022606;28;20061;-87
2022/06/13 01:05:02;;;;;;;14.15;10.45;;;;;;;16.97;81.99;95167.59;5014437;28;20041;-88
2022/06/13 01:07:28;;;;;;;19.38;10.25;;;;;;;15.52;81.02;94951.25;5027805;28;20041;-88
2022/06/13 01:12:39;;;;;;;17.63;9.30;;;;;;;16.87;80.87;95154.50;5045950;28;20452;-88
2022/06/13 01:15:28;;;;;;;14.50;10.05;;;;;;;16.26;81.23;95059.06;5027392;28;20049;-87
2022/06/13 01:18:12;;;;;;;13.75;9.88;;;;;;;16.91;81.45;95190.28;5045863;28;20509;-88
2022/06/13 01:20:45;;;;;;;13.43;10.25;;;;;;;16.70;81.73;95146.44;5028371;28;20041;-87
2022/06/13 01:23:37;;;;;;;17.85;10.18;;;;;;;16.97;81.11;95193.59;5027479;28;20508;-88
2022/06/13 01:26:05;;;;;;;17.95;10.77;;;;;;;17.00;81.46;95192.97;5044875;28;20036;-88
2022/06/13 01:28:56;;;;;;;11.25;9.43;;;;;;;17.01;81.53;95185.72;5027762;28;20124;-88
2022/06/13 01:31:47;;;;;;;13.93;9.85;;;;;;;16.86;81.49;95155.59;5045144;28;20117;-88
2022/06/13 01:34:28;;;;;;;13.13;9.10;;;;;;;17.03;81.26;95178.16;5045727;28;20048;-88
2022/06/13 01:37:09;;;;;;;10.73;9.63;;;;;;;17.04;81.65;95185.88;5046208;28;20152;-88
2022/06/13 01:39:53;;;;;;;14.43;10.43;;;;;;;17.05;81.82;95198.19;5027436;28;20126;-88
2022/06/13 01:42:39;;;;;;;19.67;9.68;;;;;;;16.89;80.74;95194.38;5026965;28;20541;-88
2022/06/13 01:45:21;;;;;;;20.00;9.38;;;;;;;16.75;81.43;95191.81;5045640;28;20044;-88
2022/06/13 01:48:29;;;;;;;12.52;9.95;;;;;;;16.62;81.65;95198.09;5024758;28;20049;-88
2022/06/13 01:51:20;;;;;;;16.23;9.82;;;;;;;16.72;81.50;95191.63;5027815;28;20493;-88
2022/06/13 01:54:33;;;;;;;20.90;10.88;;;;;;;16.69;81.35;95192.28;5045765;28;20095;-88
2022/06/13 01:57:14;;;;;;;19.98;9.73;;;;;;;16.75;81.63;95193.72;5001476;28;20429;-88
2022/06/13 02:00:11;;;;;;;15.68;11.02;;;;;;;15.53;82.93;95063.22;5024188;28;20088;-88
2022/06/13 02:02:39;;;;;;;16.75;11.10;;;;;;;16.68;82.90;95201.41;5018041;28;20870;-88
2022/06/13 02:05:15;;;;;;;14.65;10.32;;;;;;;15.78;82.01;95049.19;5026340;28;20103;-88
2022/06/13 02:07:47;;;;;;;14.98;10.88;;;;;;;15.78;82.45;95093.88;5026617;28;20461;-88
2022/06/13 02:10:20;;;;;;;17.67;9.63;;;;;;;16.33;81.85;95157.63;5026823;28;20040;-88
2022/06/13 02:12:51;;;;;;;17.00;10.88;;;;;;;15.81;82.31;95069.16;5025866;28;20037;-88
2022/06/13 02:15:23;;;;;;;15.40;11.33;;;;;;;16.16;82.25;95123.59;5028322;28;20059;-88
2022/06/13 02:17:56;;;;;;;17.58;10.68;;;;;;;14.90;82.11;94914.69;5027108;28;20047;-88
2022/06/13 02:20:26;;;;;;;18.25;10.23;;;;;;;14.93;81.33;94954.13;5026435;28;20118;-88
2022/06/13 02:22:57;;;;;;;15.73;9.82;;;;;;;14.57;81.59;94902.75;5019157;28;20080;-88
2022/06/13 02:25:29;;;;;;;19.05;9.68;;;;;;;15.60;81.47;95044.06;5017349;28;20485;-88
2022/06/13 02:28:13;;;;;;;18.77;10.60;;;;;;;15.74;81.94;95069.63;5044853;28;20076;-88
2022/06/13 02:30:45;;;;;;;17.35;10.25;;;;;;;16.43;82.54;95178.78;5009086;28;20065;-88
2022/06/13 02:33:24;;;;;;;22.33;11.05;;;;;;;16.02;82.01;95106.88;5025736;28;20042;-88
2022/06/13 02:36:21;;;;;;;20.40;10.52;;;;;;;16.00;82.06;95115.19;5010453;28;20118;-88
2022/06/13 02:39:00;;;;;;;17.55;11.68;;;;;;;16.10;81.65;95120.25;5044232;28;20037;-88
2022/06/13 02:41:35;;;;;;;21.77;10.80;;;;;;;16.38;81.79;95160.97;5026023;28;20119;-88
2022/06/13 02:44:12;;;;;;;15.85;10.10;;;;;;;16.00;81.68;95098.34;5027780;28;20041;-88
2022/06/13 02:46:50;;;;;;;20.38;12.02;;;;;;;16.70;81.68;95207.25;5030283;28;20051;-88
2022/06/13 02:49:23;;;;;;;17.33;11.15;;;;;;;15.84;81.41;95065.88;5008387;28;20053;-88
2022/06/13 02:52:07;;;;;;;16.63;12.10;;;;;;;15.87;81.18;95072.50;5026388;28;20137;-88
2022/06/13 02:54:43;;;;;;;21.83;11.35;;;;;;;16.50;81.68;95208.56;5026563;28;20044;-88
2022/06/13 02:57:35;;;;;;;19.52;12.40;;;;;;;15.12;82.93;95036.72;5044116;28;20045;-88
2022/06/13 03:00:21;;;;;;;28.17;12.90;;;;;;;16.42;83.39;95212.00;5026420;28;20036;-88
2022/06/13 03:02:59;;;;;;;21.58;11.88;;;;;;;16.49;82.47;95221.16;5025925;28;20164;-88
2022/06/13 03:05:51;;;;;;;20.92;13.07;;;;;;;16.63;82.19;95218.38;5026700;28;20092;-88
2022/06/13 03:08:41;;;;;;;23.30;11.60;;;;;;;16.62;81.69;95218.72;5026332;28;20044;-88
2022/06/13 03:11:32;;;;;;;20.92;11.25;;;;;;;15.58;81.82;95084.47;5045114;28;20057;-88
2022/06/13 03:14:30;;;;;;;19.05;11.05;;;;;;;16.18;82.19;95162.31;5043324;28;20041;-88
2022/06/13 03:17:05;;;;;;;14.25;10.25;;;;;;;15.64;82.44;95077.13;5018989;28;20345;-87
2022/06/13 03:19:37;;;;;;;19.88;11.55;;;;;;;14.99;82.52;94968.13;5044289;28;20033;-88
2022/06/13 03:22:09;;;;;;;19.10;11.50;;;;;;;15.21;82.74;95005.50;5043568;28;20071;-88
2022/06/13 03:24:37;;;;;;;21.23;12.63;;;;;;;16.44;82.54;95186.50;5025972;28;20106;-88
2022/06/13 03:27:36;;;;;;;21.15;12.32;;;;;;;16.58;82.67;95202.44;5025730;28;20076;-88
2022/06/13 03:30:10;;;;;;;22.42;13.75;;;;;;;15.92;82.30;95105.25;5025069;28;20045;-88
2022/06/13 03:35:37;;;;;;;18.80;12.38;;;;;;;16.16;82.23;95171.75;5030296;28;20091;-88
2022/06/13 03:38:05;;;;;;;22.92;13.23;;;;;;;15.96;82.58;95135.63;5026423;28;20495;-88
2022/06/13 03:40:32;;;;;;;18.10;12.73;;;;;;;15.99;83.11;95147.59;5029582;28;20040;-88
2022/06/13 03:43:11;;;;;;;18.70;14.45;;;;;;;15.90;83.00;95120.81;5055432;28;20064;-88
2022/06/13 03:45:46;;;;;;;19.15;13.70;;;;;;;15.33;82.51;95035.09;5048894;28;20044;-88
2022/06/13 03:48:25;;;;;;;24.77;15.70;;;;;;;16.24;82.23;95178.25;5025848;28;20045;-88
2022/06/13 03:50:57;;;;;;;24.02;14.43;;;;;;;15.89;83.19;95142.50;5031950;28;20144;-88
2022/06/13 03:53:57;;;;;;;26.83;14.43;;;;;;;16.46;83.77;95245.88;5027357;28;20041;-88
2022/06/13 03:56:36;;;;;;;22.27;14.50;;;;;;;16.41;84.79;95259.38;5002521;28;20051;-88
2022/06/13 03:59:18;;;;;;;25.55;14.52;;;;;;;15.75;85.15;95156.75;5028002;28;20675;-89
2022/06/13 04:01:48;;;;;;;;;;;;;;;16.20;85.66;95263.69;5028814;28;20899;-89
2022/06/13 04:04:25;;;;;;;26.42;15.60;;;;;;;16.07;85.65;95219.88;5029605;28;19949;-88
2022/06/13 04:06:51;;;;;;;22.10;14.77;;;;;;;15.86;85.52;95168.00;5029030;28;20060;-88
2022/06/13 04:09:34;;;;;;;28.83;15.40;;;;;;;15.73;85.69;95136.75;5011596;28;20053;-88
2022/06/13 04:12:12;;;;;;;23.40;14.88;;;;;;;16.52;85.67;95257.22;5030360;28;20762;-88
2022/06/13 04:14:37;;;;;;;20.33;15.48;;;;;;;16.61;85.54;95251.94;5029297;28;20119;-88
2022/06/13 04:17:37;;;;;;;25.85;15.90;;;;;;;16.58;85.75;95250.63;5026194;28;20717;-88
2022/06/13 04:20:36;;;;;;;28.08;16.45;;;;;;;16.69;84.71;95254.66;5047128;28;20299;-88
2022/06/13 04:23:23;;;;;;;22.75;15.02;;;;;;;16.69;83.99;95261.91;5027687;28;20045;-88
2022/06/13 04:26:03;;;;;;;22.13;14.32;;;;;;;16.68;84.24;95245.03;5030631;28;20060;-89
2022/06/13 04:28:45;;;;;;;30.70;17.15;;;;;;;15.84;85.76;95124.72;5024830;28;20135;-87
2022/06/13 04:31:11;;;;;;;;;;;;;;;16.69;85.06;95238.59;5025747;28;20118;-87
2022/06/13 04:33:51;;;;;;;26.38;15.13;;;;;;;13.43;85.02;94760.06;5032203;28;19921;-87
2022/06/13 04:36:19;;;;;;;25.02;15.10;;;;;;;16.01;85.41;95150.75;5047601;28;20045;-86
2022/06/13 04:38:49;;;;;;;26.17;14.77;;;;;;;14.82;86.25;94994.72;5041880;28;20496;-89
2022/06/13 04:41:25;;;;;;;27.67;16.20;;;;;;;12.72;86.39;94679.88;5024918;28;20052;-88
2022/06/13 04:44:16;;;;;;;22.92;15.40;;;;;;;13.02;86.37;94714.91;5012573;28;20049;-87
2022/06/13 04:46:44;;;;;;;23.27;16.50;;;;;;;14.37;86.32;94887.19;5045666;28;20051;-90
2022/06/13 04:49:30;;;;;;;26.00;17.90;;;;;;;13.04;86.29;94673.59;5027463;28;20049;-91
2022/06/13 04:52:02;;;;;;;24.65;15.90;;;;;;;14.37;85.63;94884.50;5027981;28;20144;-90
2022/06/13 04:54:36;;;;;;;20.05;15.23;;;;;;;15.17;85.50;95003.75;5029540;28;20093;-91
2022/06/13 04:57:17;;;;;;;25.60;15.35;;;;;;;14.37;85.15;94887.97;5029320;28;20041;-92
2022/06/13 04:59:58;;;;;;;21.23;16.13;;;;;;;14.26;85.93;94875.97;5080629;28;20052;-91
2022/06/13 05:05:46;;;;;;;37.13;20.23;;;;;;;16.74;86.21;95243.78;5043352;28;20044;-92
2022/06/13 05:08:19;;;;;;;55.00;24.38;;;;;;;13.89;85.02;94799.78;5028295;28;20057;-92
2022/06/13 05:10:54;;;;;;;24.92;15.75;;;;;;;13.48;84.96;94742.13;5037011;28;20049;-91
2022/06/13 05:13:43;;;;;;;30.80;18.58;;;;;;;14.71;85.00;94916.78;5028484;28;20242;-91
2022/06/13 05:16:54;;;;;;;23.33;16.08;;;;;;;16.79;85.15;95242.84;5034362;28;20124;-91
2022/06/13 05:19:48;;;;;;;27.95;18.35;;;;;;;16.04;85.68;95120.69;5005188;28;20047;-91
2022/06/13 05:23:12;;;;;;;26.30;16.05;;;;;;;16.75;86.17;95247.28;5036215;28;20048;-92
2022/06/13 05:25:47;;;;;;;25.70;17.70;;;;;;;14.00;85.69;94798.47;5026838;28;20139;-91
2022/06/13 05:28:27;;;;;;;25.97;17.43;;;;;;;15.77;85.99;95060.19;5065627;28;20417;-91
2022/06/13 05:31:05;;;;;;;30.27;16.40;;;;;;;15.04;85.33;94936.75;5062225;28;20192;-91
2022/06/13 05:33:37;;;;;;;29.88;16.50;;;;;;;13.62;85.09;94698.66;5060739;28;20024;-92
2022/06/13 05:36:08;;;;;;;30.92;17.00;;;;;;;16.20;85.28;95090.56;5056754;28;20050;-91
2022/06/13 05:38:47;;;;;;;30.90;18.17;;;;;;;14.18;84.31;94756.69;5064028;28;20032;-90
2022/06/13 05:41:58;;;;;;;27.52;18.35;;;;;;;16.17;84.40;95099.19;5068362;28;20132;-91
2022/06/13 05:44:34;;;;;;;25.45;16.65;;;;;;;13.53;84.29;94672.72;5072312;28;20141;-92
2022/06/13 05:47:00;;;;;;;24.48;17.10;;;;;;;16.14;84.36;95070.41;5057655;28;20055;-92
2022/06/13 05:49:36;;;;;;;28.88;17.30;;;;;;;15.56;84.17;94961.06;5063233;28;20050;-91
2022/06/13 05:52:18;;;;;;;25.00;17.25;;;;;;;17.45;83.74;95244.41;5077482;28;20115;-91
2022/06/13 05:54:46;;;;;;;27.27;16.60;;;;;;;16.30;84.04;95041.31;5065171;28;20087;-91
2022/06/13 05:57:24;;;;;;;26.70;14.50;;;;;;;14.92;82.20;94858.31;5058482;28;20123;-93
2022/06/13 06:00:13;;;;;;;18.20;12.32;;;;;;;14.20;80.67;94757.16;5064425;28;20133;-92
2022/06/13 06:02:46;;;;;;;23.85;12.38;;;;;;;15.51;82.34;94938.97;5063640;28;20128;-92
2022/06/13 06:05:12;;;;;;;20.55;13.10;;;;;;;15.72;82.17;94950.69;5075452;28;20040;-91
2022/06/13 06:07:41;;;;;;;25.55;12.70;;;;;;;15.53;81.56;94937.63;5061013;28;20059;-89
2022/06/13 06:10:39;;;;;;;24.65;12.85;;;;;;;14.96;82.25;94830.69;5042820;28;20421;-89
2022/06/13 06:13:05;;;;;;;23.20;13.10;;;;;;;17.21;82.79;95190.47;5052923;28;20444;-88
2022/06/13 06:15:39;;;;;;;21.40;13.02;;;;;;;16.55;81.82;95067.31;5056330;28;20039;-90
2022/06/13 06:18:12;;;;;;;17.05;13.45;;;;;;;15.75;81.49;94947.41;5058512;28;20158;-90
2022/06/13 06:20:44;;;;;;;24.05;13.60;;;;;;;14.33;82.16;94715.50;5067451;28;20551;-89
2022/06/13 06:23:12;;;;;;;19.75;12.25;;;;;;;15.30;80.90;94847.91;5075166;28;20047;-90
2022/06/13 06:25:42;;;;;;;23.38;11.13;;;;;;;16.02;79.36;94949.81;5053819;28;20080;-90
2022/06/13 06:28:15;;;;;;;24.20;12.95;;;;;;;15.04;80.58;94797.09;5036209;28;20045;-90
2022/06/13 06:30:43;;;;;;;21.13;11.98;;;;;;;15.13;80.79;94797.91;5030216;28;20040;-90
2022/06/13 06:33:13;;;;;;;28.27;12.98;;;;;;;17.11;80.38;95068.31;5033749;28;20043;-90
2022/06/13 06:35:42;;;;;;;22.30;12.43;;;;;;;16.78;81.13;95021.69;5027952;28;20050;-88
2022/06/13 06:38:16;;;;;;;20.10;11.27;;;;;;;16.11;79.54;94913.16;5032085;28;20041;-89
2022/06/13 06:40:44;;;;;;;20.15;10.95;;;;;;;15.48;78.84;94803.31;5050577;28;20128;-88
2022/06/13 06:43:10;;;;;;;22.30;11.70;;;;;;;15.06;78.43;94736.94;5033708;28;20056;-86
2022/06/13 06:45:46;;;;;;;22.60;11.10;;;;;;;16.79;78.65;94983.06;5027201;28;20054;-88
2022/06/13 06:50:48;;;;;;;17.25;10.90;;;;;;;16.47;78.00;94922.78;5057074;28;20422;-89
2022/06/13 06:53:15;;;;;;;18.15;10.65;;;;;;;17.77;78.72;95127.06;5035336;28;20797;-89
2022/06/13 07:01:19;;;;;;;13.25;8.52;;;;;;;15.68;75.22;94782.13;5029130;28;20040;-90
2022/06/13 07:03:45;;;;;;;;;;;;;;;18.82;76.04;95256.81;5056512;28;20040;-89
2022/06/13 07:06:18;;;;;;;13.13;8.40;;;;;;;15.47;74.76;94717.03;5044585;28;19978;-89
2022/06/13 07:08:44;;;;;;;10.80;7.32;;;;;;;17.77;74.96;95049.28;5044476;28;20141;-88
2022/06/13 07:14:12;;;;;;;23.17;10.93;;;;;;;16.90;72.48;94898.63;5065872;28;20122;-87
2022/06/13 07:16:38;;;;;;;19.30;9.07;;;;;;;16.78;74.28;94890.47;5050108;28;20036;-88
2022/06/13 07:19:08;;;;;;;18.67;7.93;;;;;;;18.01;73.06;95078.97;5058559;28;20067;-88
2022/06/13 07:21:36;;;;;;;11.33;8.27;;;;;;;17.66;73.12;95008.59;5049386;28;20041;-88
2022/06/13 07:24:11;;;;;;;12.00;8.02;;;;;;;18.29;73.31;95093.53;5065408;28;20346;-88
2022/06/13 07:26:46;;;;;;;10.82;7.47;;;;;;;16.25;72.13;94784.56;5062448;28;20070;-87
2022/06/13 07:29:36;;;;;;;20.83;7.90;;;;;;;18.08;72.42;95037.13;5056829;28;20033;-87
2022/06/13 07:32:08;;;;;;;18.52;8.20;;;;;;;19.09;72.89;95164.19;5063260;28;20050;-87
2022/06/13 07:34:42;;;;;;;14.82;7.03;;;;;;;16.20;71.71;94737.38;5050393;28;20109;-86
2022/06/13 07:37:12;;;;;;;12.20;6.60;;;;;;;15.98;71.31;94718.09;5045492;28;20032;-87
2022/06/13 07:39:38;;;;;;;11.43;7.05;;;;;;;16.10;70.71;94710.97;5068555;28;20040;-88
2022/06/13 07:45:24;;;;;;;10.93;7.30;;;;;;;16.63;72.23;94797.28;5055417;28;20126;-90
2022/06/13 07:47:58;;;;;;;13.50;7.72;;;;;;;16.14;72.25;94724.50;5055602;28;20587;-89
2022/06/13 07:50:31;;;;;;;11.75;7.32;;;;;;;16.33;70.96;94726.78;5052988;28;20049;-90
2022/06/13 07:53:26;;;;;;;9.75;6.82;;;;;;;19.62;70.60;95200.34;5078840;28;20113;-89
2022/06/13 07:55:59;;;;;;;16.25;9.00;;;;;;;16.73;71.92;94768.25;5084743;28;20048;-90
2022/06/13 08:03:08;;;;;;;13.13;8.10;;;;;;;17.48;70.56;94851.56;4994434;28;20050;-89
2022/06/13 08:06:10;;;;;;;;;;;;;;;;;;;;;
2022/06/13 08:09:12;;;;;;;;;;;;;;;;;;;;;
2022/06/13 08:15:24;;;;;;;13.50;6.30;;;;;;;20.35;69.63;95243.69;5017867;28;20033;-90
2022/06/13 08:18:32;;;;;;;;;;;;;;;;;;;;;
2022/06/13 08:21:23;;;;;;;11.55;5.72;;;;;;;19.02;69.67;95002.66;5101683;28;20049;-89
2022/06/13 08:23:52;;;;;;;6.47;5.13;;;;;;;17.93;69.57;94841.03;5089922;27;20539;-89
2022/06/13 08:29:37;;;;;;;7.95;4.72;;;;;;;18.13;67.61;94840.25;5073500;27;20090;-88
2022/06/13 08:36:01;;;;;;;8.57;4.75;;;;;;;20.93;67.06;95256.00;5081391;27;20047;-89
2022/06/13 08:38:55;;;;;;;9.07;4.70;;;;;;;20.22;66.93;95123.56;4982892;28;20054;-89
2022/06/13 08:45:03;;;;;;;9.20;5.30;;;;;;;19.97;64.99;95044.69;5010660;27;20484;-91
2022/06/13 08:48:22;;;;;;;11.40;5.00;;;;;;;19.13;65.75;94907.06;5074543;28;20142;-90
2022/06/13 08:51:04;;;;;;;8.75;4.75;;;;;;;19.05;64.25;94882.97;5098687;27;20055;-90
2022/06/13 08:53:49;;;;;;;8.40;5.18;;;;;;;19.50;63.92;94926.75;5106071;27;20092;-92
2022/06/13 08:56:39;;;;;;;7.07;4.82;;;;;;;20.01;63.05;94989.06;5110331;27;20107;-90
2022/06/13 08:59:55;;;;;;;7.40;5.35;;;;;;;21.72;64.93;95243.00;5085763;28;20482;-91
2022/06/13 09:02:28;;;;;;;10.82;4.40;;;;;;;19.79;63.59;94949.16;5099594;27;20082;-91
2022/06/13 09:05:03;;;;;;;9.68;4.60;;;;;;;20.02;64.32;94958.34;5106396;27;20042;-91
2022/06/13 09:07:42;;;;;;;9.52;4.80;;;;;;;20.95;63.18;95075.03;5088752;28;20134;-90
2022/06/13 09:10:46;;;;;;;6.60;4.50;;;;;;;19.77;63.28;94890.28;5087760;28;20399;-91
2022/06/13 09:13:35;;;;;;;8.00;4.63;;;;;;;19.39;63.53;94798.41;5048736;27;20061;-90
2022/06/13 09:16:22;;;;;;;8.60;4.65;;;;;;;20.63;63.29;94964.41;5087366;27;20051;-90
2022/06/13 09:19:29;;;;;;;11.70;4.80;;;;;;;22.56;60.30;95231.03;5106429;27;20127;-91
2022/06/13 09:22:12;;;;;;;5.05;3.90;;;;;;;20.54;61.87;94920.66;5094247;28;20035;-90
2022/06/13 09:31:39;;;;;;;6.20;3.75;;;;;;;21.02;58.28;95002.44;5107612;27;20510;-90
2022/06/13 09:34:36;;;;;;;4.38;3.90;;;;;;;21.18;58.64;94993.31;5085314;28;20050;-91
2022/06/13 09:37:19;;;;;;;4.35;3.67;;;;;;;20.29;59.24;94849.13;5054895;28;20132;-89
2022/06/13 09:39:47;;;;;;;8.05;4.15;;;;;;;20.66;58.56;94885.59;5087740;28;20052;-89
2022/06/13 09:42:47;;;;;;;5.95;3.95;;;;;;;22.70;58.70;95180.00;5082034;28;20047;-89
2022/06/13 09:45:47;;;;;;;8.15;4.22;;;;;;;23.87;57.78;95229.78;5071108;28;20067;-90
2022/06/13 09:48:45;;;;;;;5.45;4.03;;;;;;;24.85;55.02;95228.13;5080588;28;20047;-90
2022/06/13 09:51:54;;;;;;;7.28;3.22;;;;;;;22.41;51.46;94745.44;5080241;28;20116;-90
2022/06/13 09:54:37;;;;;;;8.88;4.00;;;;;;;25.80;49.14;95134.84;5075487;28;20032;-90
2022/06/13 09:57:51;;;;;;;9.82;3.17;;;;;;;26.99;48.68;95224.22;5084802;28;20060;-89
2022/06/13 10:00:49;;;;;;;4.80;3.63;;;;;;;25.23;47.21;94870.88;5093089;28;20036;-87
2022/06/13 10:04:02;;;;;;;13.65;3.50;;;;;;;28.08;44.75;95212.38;5072412;28;20048;-87
2022/06/13 10:07:10;;;;;;;6.80;3.30;;;;;;;28.54;44.76;95209.81;5086202;28;20048;-87
2022/06/13 10:10:25;;;;;;;5.38;4.03;;;;;;;28.10;44.54;95215.50;5096575;28;20079;-87
2022/06/13 10:13:49;;;;;;;6.30;3.47;;;;;;;26.74;44.02;95000.91;5081381;28;20055;-87
2022/06/13 10:16:42;;;;;;;9.27;4.55;;;;;;;26.32;43.42;94845.69;5053529;28;20170;-87
2022/06/13 10:19:53;;;;;;;7.43;4.05;;;;;;;29.11;42.41;95163.44;5085180;28;20078;-88
2022/06/13 10:23:05;;;;;;;4.20;3.30;;;;;;;26.75;40.53;94779.41;5076711;28;20137;-88
2022/06/13 10:25:52;;;;;;;7.35;3.58;;;;;;;29.27;40.25;95168.50;5008918;28;20102;-88
2022/06/13 10:28:26;;;;;;;7.55;3.10;;;;;;;29.15;42.61;95194.25;5002217;28;20133;-89
2022/06/13 10:31:27;;;;;;;6.05;3.53;;;;;;;26.96;42.41;94870.41;5070376;28;20097;-90
2022/06/13 10:34:02;;;;;;;6.50;4.00;;;;;;;29.20;43.36;95206.75;5065414;28;20052;-88
2022/06/13 10:36:49;;;;;;;6.50;3.78;;;;;;;29.52;41.69;95196.56;5072187;28;20052;-90
2022/06/13 10:39:19;;;;;;;6.18;3.92;;;;;;;26.72;41.84;94719.53;5075562;28;20127;-88
2022/06/13 10:41:51;;;;;;;8.25;3.97;;;;;;;27.31;40.78;94742.53;5064219;28;20045;-86
2022/06/13 10:44:20;;;;;;;6.70;3.90;;;;;;;28.48;39.69;94902.34;5080207;28;20040;-88
2022/06/13 10:46:54;;;;;;;9.60;4.05;;;;;;;27.47;40.73;94702.03;5082768;28;20032;-87
2022/06/13 10:49:34;;;;;;;7.35;3.95;;;;;;;28.40;38.37;94847.81;5084212;28;20028;-87
2022/06/13 10:52:07;;;;;;;6.65;4.03;;;;;;;29.49;40.11;94990.50;5079982;28;20745;-88
2022/06/13 10:54:38;;;;;;;9.20;4.50;;;;;;;29.18;37.09;94923.91;5079631;28;20040;-87
2022/06/13 10:57:08;;;;;;;8.95;3.90;;;;;;;29.41;40.06;94985.47;5084032;28;20036;-87
2022/06/13 10:59:37;;;;;;;5.22;3.90;;;;;;;30.32;39.31;95122.78;5090471;28;20707;-87
2022/06/13 11:02:16;;;;;;;7.22;4.10;;;;;;;29.40;36.35;94932.78;5100248;28;20028;-88
2022/06/13 11:04:42;;;;;;;7.00;3.92;;;;;;;29.91;37.11;94981.22;5081072;28;20107;-87
2022/06/13 11:07:18;;;;;;;6.43;4.30;;;;;;;29.17;36.71;94831.47;5083861;28;20092;-89
2022/06/13 11:09:47;;;;;;;6.93;4.07;;;;;;;29.77;37.65;94934.88;5094462;28;20150;-88
2022/06/13 11:12:36;;;;;;;7.47;4.47;;;;;;;28.48;37.13;94763.22;5085515;28;20608;-88
2022/06/13 11:23:57;;;;;;;11.25;5.38;;;;;;;28.42;38.54;94929.25;5084330;28;20186;-88
2022/06/13 11:29:31;;;;;;;8.15;4.40;;;;;;;27.89;39.31;94900.09;5081874;28;20552;-88
2022/06/13 11:32:02;;;;;;;9.50;4.82;;;;;;;27.31;39.87;94816.03;5081866;28;20390;-88
2022/06/13 11:34:28;;;;;;;10.88;5.00;;;;;;;28.65;42.36;95035.97;5064293;28;20032;-87
2022/06/13 11:37:15;;;;;;;10.18;4.93;;;;;;;29.58;40.46;95104.81;5091513;28;20042;-88
2022/06/13 11:39:54;;;;;;;9.70;4.60;;;;;;;26.78;40.17;94664.34;5068105;28;20464;-88
2022/06/13 11:42:29;;;;;;;10.57;4.90;;;;;;;26.49;42.05;94657.34;5066872;28;20068;-89
2022/06/13 11:45:03;;;;;;;8.77;5.00;;;;;;;27.45;40.49;94760.78;5079763;28;20456;-88
2022/06/13 11:47:49;;;;;;;6.97;4.50;;;;;;;28.82;38.90;94960.75;5069245;28;20047;-88
2022/06/13 11:50:33;;;;;;;8.80;5.05;;;;;;;29.99;37.78;95057.75;5072564;28;20113;-88
2022/06/13 11:55:56;;;;;;;7.63;5.28;;;;;;;29.51;37.01;94922.56;5082389;28;20067;-89
2022/06/13 11:58:31;;;;;;;6.30;5.20;;;;;;;28.02;39.80;94702.28;5067570;28;20079;-89
2022/06/13 12:01:19;;;;;;;9.98;5.10;;;;;;;30.31;38.80;94990.69;5074649;28;20059;-89
2022/06/13 12:04:03;;;;;;;12.90;4.95;;;;;;;29.89;37.09;94906.28;5072077;28;20135;-90
2022/06/13 12:06:48;;;;;;;9.80;4.85;;;;;;;28.42;35.76;94676.38;5071656;28;20040;-90
2022/06/13 12:09:43;;;;;;;;;;;;;;;;;;;;;
2022/06/13 12:12:10;;;;;;;5.75;4.65;;;;;;;28.41;36.58;94641.31;5083156;28;20394;-89
2022/06/13 12:14:41;;;;;;;6.15;4.75;;;;;;;28.82;37.46;94682.38;5071163;28;20119;-90
2022/06/13 12:17:21;;;;;;;7.00;4.38;;;;;;;28.52;35.59;94636.59;5078337;28;20044;-90
2022/06/13 12:20:11;;;;;;;9.48;4.63;;;;;;;31.66;36.66;95029.59;5063382;28;20105;-91
2022/06/13 12:22:51;;;;;;;13.60;4.78;;;;;;;29.05;36.14;94608.88;5057441;28;20127;-90
2022/06/13 12:25:29;;;;;;;8.20;4.87;;;;;;;31.15;34.11;94893.63;5064262;28;20245;-90
2022/06/13 12:28:05;;;;;;;6.85;4.72;;;;;;;32.44;35.54;95056.63;5067774;28;20473;-88
2022/06/13 12:31:02;;;;;;;7.47;5.07;;;;;;;31.98;33.91;95054.56;5063594;28;20079;-88
2022/06/13 12:33:38;;;;;;;12.18;5.05;;;;;;;30.50;33.21;94824.41;5070896;28;20040;-88
2022/06/13 12:36:41;;;;;;;13.23;6.18;;;;;;;32.29;32.23;95044.31;5063355;28;20092;-88
2022/06/13 12:39:25;;;;;;;6.72;4.97;;;;;;;32.15;33.37;95052.78;5065901;28;20036;-90
2022/06/13 12:42:23;;;;;;;;;;;;;;;;;;;;;
2022/06/13 12:44:49;;;;;;;12.73;5.38;;;;;;;31.91;33.87;95038.22;5086572;28;20081;-88
2022/06/13 12:47:48;;;;;;;20.80;8.70;;;;;;;31.96;33.81;95053.44;5076674;28;20103;-89
2022/06/13 12:51:02;;;;;;;11.27;4.90;;;;;;;32.24;35.30;95044.81;5063150;28;20037;-89
2022/06/13 12:53:39;;;;;;;6.28;4.30;;;;;;;32.09;36.27;95032.47;5034162;28;20504;-89
2022/06/13 12:56:37;;;;;;;5.97;4.65;;;;;;;32.39;32.10;95034.38;5095610;28;20470;-89
2022/06/13 12:59:24;;;;;;;8.23;5.13;;;;;;;32.50;31.32;95029.50;5083032;28;20054;-89
2022/06/13 13:02:10;;;;;;;11.20;5.10;;;;;;;32.67;32.76;95033.13;5073596;28;20415;-89
2022/06/13 13:04:42;;;;;;;9.57;5.00;;;;;;;32.79;34.37;95019.59;5077914;28;20608;-89
2022/06/13 13:07:11;;;;;;;8.05;4.80;;;;;;;32.64;32.89;94954.34;5079030;28;20091;-89
2022/06/13 13:10:33;;;;;;;11.10;5.68;;;;;;;32.97;31.74;95014.53;5071391;28;20051;-89
2022/06/13 13:13:49;;;;;;;11.15;5.35;;;;;;;33.42;29.86;95011.31;5021332;28;20052;-89
2022/06/13 13:16:23;;;;;;;12.00;5.97;;;;;;;33.27;30.07;94979.81;4970092;28;20038;-88
2022/06/13 13:19:29;;;;;;;12.85;5.80;;;;;;;33.65;30.69;95005.69;5016629;28;20052;-88
2022/06/13 13:22:13;;;;;;;7.88;5.03;;;;;;;31.09;30.40;94608.50;5024479;28;20121;-88
2022/06/13 13:24:57;;;;;;;10.35;5.22;;;;;;;33.36;30.31;94943.53;5064371;28;20047;-88
2022/06/13 13:27:36;;;;;;;7.65;4.95;;;;;;;31.80;29.67;94755.19;5072041;28;20073;-89
2022/06/13 13:30:05;;;;;;;9.23;5.20;;;;;;;32.94;29.98;95011.88;5076418;28;20048;-89
2022/06/13 13:32:37;;;;;;;9.40;5.35;;;;;;;32.74;29.21;95005.56;5075494;28;20054;-89
2022/06/13 13:35:06;;;;;;;10.10;5.13;;;;;;;33.28;28.89;95006.09;5074405;28;20044;-89